sensor_id;sensor_type;location;lat;lon;timestamp;pressure;altitude;pressure_sealevel;temperature;humidity
48517;BME280;34310;51.904;4.256;2022-10-16T00:01:29;100956.75;;;17.78;68.90
48517;BME280;34310;51.904;4.256;2022-10-16T00:03:57;100960.13;;;17.76;68.81
48517;BME280;34310;51.904;4.256;2022-10-16T00:06:26;100961.91;;;17.77;69.00
48517;BME280;34310;51.904;4.256;2022-10-16T00:08:55;100964.50;;;17.77;68.96
48517;BME280;34310;51.904;4.256;2022-10-16T00:11:25;100962.78;;;17.77;68.83
48517;BME280;34310;51.904;4.256;2022-10-16T00:13:57;100964.50;;;17.77;68.70
48517;BME280;34310;51.904;4.256;2022-10-16T00:16:25;100965.34;;;17.76;68.86
48517;BME280;34310;51.904;4.256;2022-10-16T00:18:53;100966.22;;;17.76;68.96
48517;BME280;34310;51.904;4.256;2022-10-16T00:21:23;100963.63;;;17.76;68.95
48517;BME280;34310;51.904;4.256;2022-10-16T00:23:53;100971.38;;;17.75;68.69
48517;BME280;34310;51.904;4.256;2022-10-16T00:26:21;100960.94;;;17.75;68.86
48517;BME280;34310;51.904;4.256;2022-10-16T00:28:49;100961.84;;;17.75;68.96
48517;BME280;34310;51.904;4.256;2022-10-16T00:31:18;100966.16;;;17.75;68.90
48517;BME280;34310;51.904;4.256;2022-10-16T00:33:46;100952.22;;;17.74;68.85
48517;BME280;34310;51.904;4.256;2022-10-16T00:36:17;100947.00;;;17.74;68.82
48517;BME280;34310;51.904;4.256;2022-10-16T00:38:46;100957.44;;;17.74;68.91
48517;BME280;34310;51.904;4.256;2022-10-16T00:41:17;100952.22;;;17.74;68.83
48517;BME280;34310;51.904;4.256;2022-10-16T00:43:55;100950.44;;;17.73;68.91
48517;BME280;34310;51.904;4.256;2022-10-16T00:49:06;100958.28;;;17.73;68.92
48517;BME280;34310;51.904;4.256;2022-10-16T00:52:01;100954.69;;;17.71;68.90
48517;BME280;34310;51.904;4.256;2022-10-16T00:54:31;100962.59;;;17.73;68.85
48517;BME280;34310;51.904;4.256;2022-10-16T00:57:01;100958.19;;;17.72;68.93
48517;BME280;34310;51.904;4.256;2022-10-16T01:01:59;100966.88;;;17.71;68.90
48517;BME280;34310;51.904;4.256;2022-10-16T01:04:39;100967.75;;;17.71;69.03
48517;BME280;34310;51.904;4.256;2022-10-16T01:12:41;100965.06;;;17.70;68.98
48517;BME280;34310;51.904;4.256;2022-10-16T01:15:34;100960.75;;;17.70;69.10
48517;BME280;34310;51.904;4.256;2022-10-16T01:18:24;100966.78;;;17.69;68.94
48517;BME280;34310;51.904;4.256;2022-10-16T01:21:05;100965.91;;;17.69;69.00
48517;BME280;34310;51.904;4.256;2022-10-16T01:23:49;100961.41;;;17.66;69.08
48517;BME280;34310;51.904;4.256;2022-10-16T01:26:48;100973.66;;;17.67;68.97
48517;BME280;34310;51.904;4.256;2022-10-16T01:29:26;100970.06;;;17.65;69.01
48517;BME280;34310;51.904;4.256;2022-10-16T01:32:22;100964.84;;;17.65;69.13
48517;BME280;34310;51.904;4.256;2022-10-16T01:35:14;100966.63;;;17.66;69.09
48517;BME280;34310;51.904;4.256;2022-10-16T01:40:18;100974.41;;;17.64;68.99
48517;BME280;34310;51.904;4.256;2022-10-16T01:42:59;100974.41;;;17.64;69.01
48517;BME280;34310;51.904;4.256;2022-10-16T01:45:29;100968.28;;;17.64;69.31
48517;BME280;34310;51.904;4.256;2022-10-16T01:48:00;100977.81;;;17.63;69.15
48517;BME280;34310;51.904;4.256;2022-10-16T01:50:28;100971.69;;;17.63;69.16
48517;BME280;34310;51.904;4.256;2022-10-16T01:52:56;100971.69;;;17.63;69.15
48517;BME280;34310;51.904;4.256;2022-10-16T01:55:28;100968.19;;;17.62;69.17
48517;BME280;34310;51.904;4.256;2022-10-16T01:57:58;100971.69;;;17.63;69.03
48517;BME280;34310;51.904;4.256;2022-10-16T02:00:27;100967.28;;;17.62;69.24
48517;BME280;34310;51.904;4.256;2022-10-16T02:02:56;100976.00;;;17.62;69.07
48517;BME280;34310;51.904;4.256;2022-10-16T02:05:37;100976.00;;;17.62;69.27
48517;BME280;34310;51.904;4.256;2022-10-16T02:08:06;100981.25;;;17.62;69.19
48517;BME280;34310;51.904;4.256;2022-10-16T02:10:36;100989.91;;;17.61;69.12
48517;BME280;34310;51.904;4.256;2022-10-16T02:13:11;100977.72;;;17.62;69.07
48517;BME280;34310;51.904;4.256;2022-10-16T02:15:39;100982.00;;;17.60;69.27
48517;BME280;34310;51.904;4.256;2022-10-16T02:18:07;100980.28;;;17.60;69.21
48517;BME280;34310;51.904;4.256;2022-10-16T02:21:07;100983.72;;;17.59;69.03
48517;BME280;34310;51.904;4.256;2022-10-16T02:24:16;100982.00;;;17.60;69.45
48517;BME280;34310;51.904;4.256;2022-10-16T02:29:21;100989.84;;;17.60;69.37
48517;BME280;34310;51.904;4.256;2022-10-16T02:31:55;100985.50;;;17.60;69.35
48517;BME280;34310;51.904;4.256;2022-10-16T02:34:24;100987.22;;;17.60;69.40
48517;BME280;34310;51.904;4.256;2022-10-16T02:36:54;100984.47;;;17.57;69.42
48517;BME280;34310;51.904;4.256;2022-10-16T02:39:22;100993.19;;;17.57;69.19
48517;BME280;34310;51.904;4.256;2022-10-16T02:41:49;100997.53;;;17.57;69.39
48517;BME280;34310;51.904;4.256;2022-10-16T02:44:16;100998.41;;;17.57;69.50
48517;BME280;34310;51.904;4.256;2022-10-16T02:46:43;100984.47;;;17.57;69.41
48517;BME280;34310;51.904;4.256;2022-10-16T02:49:11;100991.41;;;17.56;69.48
48517;BME280;34310;51.904;4.256;2022-10-16T02:51:38;100983.50;;;17.55;69.18
48517;BME280;34310;51.904;4.256;2022-10-16T02:54:05;100986.13;;;17.55;69.49
48517;BME280;34310;51.904;4.256;2022-10-16T02:56:33;100987.03;;;17.55;69.46
48517;BME280;34310;51.904;4.256;2022-10-16T02:59:00;100995.75;;;17.56;69.50
48517;BME280;34310;51.904;4.256;2022-10-16T03:01:27;100988.75;;;17.55;69.40
48517;BME280;34310;51.904;4.256;2022-10-16T03:03:55;100987.84;;;17.54;69.33
48517;BME280;34310;51.904;4.256;2022-10-16T03:06:22;101000.91;;;17.54;69.10
48517;BME280;34310;51.904;4.256;2022-10-16T03:08:49;101000.00;;;17.54;69.20
48517;BME280;34310;51.904;4.256;2022-10-16T03:11:16;100999.09;;;17.53;69.24
48517;BME280;34310;51.904;4.256;2022-10-16T03:13:44;101005.16;;;17.52;69.48
48517;BME280;34310;51.904;4.256;2022-10-16T03:16:11;101010.44;;;17.54;69.16
48517;BME280;34310;51.904;4.256;2022-10-16T03:18:38;101013.00;;;17.52;69.24
48517;BME280;34310;51.904;4.256;2022-10-16T03:21:06;101013.81;;;17.51;69.12
48517;BME280;34310;51.904;4.256;2022-10-16T03:23:33;101010.31;;;17.51;69.48
48517;BME280;34310;51.904;4.256;2022-10-16T03:26:00;101008.59;;;17.51;69.25
48517;BME280;34310;51.904;4.256;2022-10-16T03:28:27;101022.53;;;17.52;69.31
48517;BME280;34310;51.904;4.256;2022-10-16T03:30:55;101017.25;;;17.50;69.30
48517;BME280;34310;51.904;4.256;2022-10-16T03:33:22;101014.56;;;17.49;69.34
48517;BME280;34310;51.904;4.256;2022-10-16T03:35:53;101021.56;;;17.50;69.48
48517;BME280;34310;51.904;4.256;2022-10-16T03:38:21;101026.81;;;17.50;69.41
48517;BME280;34310;51.904;4.256;2022-10-16T03:40:49;101029.41;;;17.50;69.36
48517;BME280;34310;51.904;4.256;2022-10-16T03:43:16;101029.41;;;17.50;69.48
48517;BME280;34310;51.904;4.256;2022-10-16T03:45:43;101033.75;;;17.49;69.34
48517;BME280;34310;51.904;4.256;2022-10-16T03:48:11;101033.66;;;17.48;69.47
48517;BME280;34310;51.904;4.256;2022-10-16T03:50:38;101037.16;;;17.48;69.43
48517;BME280;34310;51.904;4.256;2022-10-16T03:53:06;101038.00;;;17.47;69.41
48517;BME280;34310;51.904;4.256;2022-10-16T03:55:34;101037.09;;;17.47;69.34
48517;BME280;34310;51.904;4.256;2022-10-16T03:58:01;101044.09;;;17.48;69.59
48517;BME280;34310;51.904;4.256;2022-10-16T04:00:29;101040.59;;;17.47;69.43
48517;BME280;34310;51.904;4.256;2022-10-16T04:02:56;101045.75;;;17.46;69.42
48517;BME280;34310;51.904;4.256;2022-10-16T04:05:23;101042.25;;;17.45;69.35
48517;BME280;34310;51.904;4.256;2022-10-16T04:07:51;101047.53;;;17.47;69.38
48517;BME280;34310;51.904;4.256;2022-10-16T04:10:18;101049.19;;;17.45;69.36
48517;BME280;34310;51.904;4.256;2022-10-16T04:12:46;101054.41;;;17.45;69.55
48517;BME280;34310;51.904;4.256;2022-10-16T04:15:13;101057.84;;;17.44;69.48
48517;BME280;34310;51.904;4.256;2022-10-16T04:17:40;101066.56;;;17.44;69.49
48517;BME280;34310;51.904;4.256;2022-10-16T04:20:08;101076.94;;;17.43;69.54
48517;BME280;34310;51.904;4.256;2022-10-16T04:22:35;101082.16;;;17.43;69.54
48517;BME280;34310;51.904;4.256;2022-10-16T04:25:03;101086.56;;;17.44;69.61
48517;BME280;34310;51.904;4.256;2022-10-16T04:27:30;101091.78;;;17.44;69.39
48517;BME280;34310;51.904;4.256;2022-10-16T04:29:59;101096.09;;;17.43;69.60
48517;BME280;34310;51.904;4.256;2022-10-16T04:32:27;101090.81;;;17.42;69.61
48517;BME280;34310;51.904;4.256;2022-10-16T04:34:54;101092.59;;;17.43;69.54
48517;BME280;34310;51.904;4.256;2022-10-16T04:37:27;101096.03;;;17.42;69.61
48517;BME280;34310;51.904;4.256;2022-10-16T04:39:55;101108.25;;;17.43;69.76
48517;BME280;34310;51.904;4.256;2022-10-16T04:42:22;101118.72;;;17.43;69.53
48517;BME280;34310;51.904;4.256;2022-10-16T04:44:49;101120.41;;;17.42;69.50
48517;BME280;34310;51.904;4.256;2022-10-16T04:47:17;101120.41;;;17.42;69.52
48517;BME280;34310;51.904;4.256;2022-10-16T04:49:44;101121.25;;;17.41;69.48
48517;BME280;34310;51.904;4.256;2022-10-16T04:52:11;101121.25;;;17.41;69.45
48517;BME280;34310;51.904;4.256;2022-10-16T04:54:38;101126.47;;;17.41;69.37
48517;BME280;34310;51.904;4.256;2022-10-16T04:57:05;101118.56;;;17.40;69.55
48517;BME280;34310;51.904;4.256;2022-10-16T04:59:33;101126.47;;;17.41;69.58
48517;BME280;34310;51.904;4.256;2022-10-16T05:02:00;101127.28;;;17.40;69.55
48517;BME280;34310;51.904;4.256;2022-10-16T05:04:27;101141.16;;;17.39;69.60
48517;BME280;34310;51.904;4.256;2022-10-16T05:06:54;101143.78;;;17.39;69.43
48517;BME280;34310;51.904;4.256;2022-10-16T05:09:22;101147.28;;;17.40;69.63
48517;BME280;34310;51.904;4.256;2022-10-16T05:11:49;101141.16;;;17.39;69.47
48517;BME280;34310;51.904;4.256;2022-10-16T05:14:17;101143.78;;;17.39;69.65
48517;BME280;34310;51.904;4.256;2022-10-16T05:16:44;101150.69;;;17.39;69.52
48517;BME280;34310;51.904;4.256;2022-10-16T05:19:14;101159.44;;;17.39;69.57
48517;BME280;34310;51.904;4.256;2022-10-16T05:21:53;101160.31;;;17.40;69.65
48517;BME280;34310;51.904;4.256;2022-10-16T05:24:20;101163.81;;;17.40;69.59
48517;BME280;34310;51.904;4.256;2022-10-16T05:26:48;101159.34;;;17.38;69.55
48517;BME280;34310;51.904;4.256;2022-10-16T05:29:15;101161.16;;;17.39;69.66
48517;BME280;34310;51.904;4.256;2022-10-16T05:31:42;101165.53;;;17.40;69.49
48517;BME280;34310;51.904;4.256;2022-10-16T05:34:09;101161.16;;;17.39;69.77
48517;BME280;34310;51.904;4.256;2022-10-16T05:36:37;101168.09;;;17.38;69.66
48517;BME280;34310;51.904;4.256;2022-10-16T05:39:04;101176.81;;;17.39;69.69
48517;BME280;34310;51.904;4.256;2022-10-16T05:41:31;101175.91;;;17.38;69.59
48517;BME280;34310;51.904;4.256;2022-10-16T05:43:59;101176.81;;;17.39;69.59
48517;BME280;34310;51.904;4.256;2022-10-16T05:46:26;101180.25;;;17.38;69.73
48517;BME280;34310;51.904;4.256;2022-10-16T05:48:53;101177.63;;;17.38;69.54
48517;BME280;34310;51.904;4.256;2022-10-16T05:51:20;101182.84;;;17.38;69.66
48517;BME280;34310;51.904;4.256;2022-10-16T05:53:48;101180.25;;;17.38;69.71
48517;BME280;34310;51.904;4.256;2022-10-16T05:56:15;101193.28;;;17.38;69.62
48517;BME280;34310;51.904;4.256;2022-10-16T05:58:42;101186.28;;;17.37;69.79
48517;BME280;34310;51.904;4.256;2022-10-16T06:01:16;101181.88;;;17.36;69.51
48517;BME280;34310;51.904;4.256;2022-10-16T06:03:44;101185.38;;;17.36;69.68
48517;BME280;34310;51.904;4.256;2022-10-16T06:06:16;101185.38;;;17.36;69.79
48517;BME280;34310;51.904;4.256;2022-10-16T06:08:44;101193.22;;;17.36;69.77
48517;BME280;34310;51.904;4.256;2022-10-16T06:11:20;101204.56;;;17.37;69.59
48517;BME280;34310;51.904;4.256;2022-10-16T06:13:56;101197.53;;;17.36;69.65
48517;BME280;34310;51.904;4.256;2022-10-16T06:16:25;101207.09;;;17.35;69.61
48517;BME280;34310;51.904;4.256;2022-10-16T06:18:53;101217.53;;;17.35;69.49
48517;BME280;34310;51.904;4.256;2022-10-16T06:21:23;101212.19;;;17.33;69.73
48517;BME280;34310;51.904;4.256;2022-10-16T06:23:55;101218.31;;;17.34;69.72
48517;BME280;34310;51.904;4.256;2022-10-16T06:26:24;101219.22;;;17.34;69.77
48517;BME280;34310;51.904;4.256;2022-10-16T06:28:53;101227.03;;;17.34;69.74
48517;BME280;34310;51.904;4.256;2022-10-16T06:31:21;101223.53;;;17.34;69.57
48517;BME280;34310;51.904;4.256;2022-10-16T06:33:53;101228.75;;;17.34;69.53
48517;BME280;34310;51.904;4.256;2022-10-16T06:36:20;101240.09;;;17.34;69.69
48517;BME280;34310;51.904;4.256;2022-10-16T06:38:48;101238.28;;;17.33;69.55
48517;BME280;34310;51.904;4.256;2022-10-16T06:41:20;101234.88;;;17.34;69.70
48517;BME280;34310;51.904;4.256;2022-10-16T06:43:48;101249.63;;;17.34;69.50
48517;BME280;34310;51.904;4.256;2022-10-16T06:46:18;101254.84;;;17.34;69.64
48517;BME280;34310;51.904;4.256;2022-10-16T06:48:46;101253.97;;;17.33;69.63
48517;BME280;34310;51.904;4.256;2022-10-16T06:51:22;101257.38;;;17.32;69.50
48517;BME280;34310;51.904;4.256;2022-10-16T06:53:52;101264.41;;;17.33;69.46
48517;BME280;34310;51.904;4.256;2022-10-16T06:56:35;101276.63;;;17.34;69.72
48517;BME280;34310;51.904;4.256;2022-10-16T06:59:03;101287.88;;;17.33;69.53
48517;BME280;34310;51.904;4.256;2022-10-16T07:01:30;101288.78;;;17.34;69.51
48517;BME280;34310;51.904;4.256;2022-10-16T07:03:58;101289.69;;;17.34;69.65
48517;BME280;34310;51.904;4.256;2022-10-16T07:06:26;101296.59;;;17.34;69.70
48517;BME280;34310;51.904;4.256;2022-10-16T07:08:54;101301.81;;;17.34;69.63
48517;BME280;34310;51.904;4.256;2022-10-16T07:11:22;101297.44;;;17.33;69.48
48517;BME280;34310;51.904;4.256;2022-10-16T07:13:50;101300.94;;;17.33;69.61
48517;BME280;34310;51.904;4.256;2022-10-16T07:16:25;101310.47;;;17.33;69.51
48517;BME280;34310;51.904;4.256;2022-10-16T07:18:54;101309.66;;;17.34;69.48
48517;BME280;34310;51.904;4.256;2022-10-16T07:21:28;101319.22;;;17.33;69.38
48517;BME280;34310;51.904;4.256;2022-10-16T07:23:59;101323.59;;;17.34;69.64
48517;BME280;34310;51.904;4.256;2022-10-16T07:26:31;101325.31;;;17.34;69.63
48517;BME280;34310;51.904;4.256;2022-10-16T07:28:59;101334.03;;;17.34;69.55
48517;BME280;34310;51.904;4.256;2022-10-16T07:31:28;101340.97;;;17.34;69.58
48517;BME280;34310;51.904;4.256;2022-10-16T07:33:59;101344.50;;;17.34;69.45
48517;BME280;34310;51.904;4.256;2022-10-16T07:36:27;101351.53;;;17.36;69.64
48517;BME280;34310;51.904;4.256;2022-10-16T07:38:55;101351.53;;;17.36;69.56
48517;BME280;34310;51.904;4.256;2022-10-16T07:41:26;101352.44;;;17.36;69.62
48517;BME280;34310;51.904;4.256;2022-10-16T07:43:54;101359.38;;;17.36;69.51
48517;BME280;34310;51.904;4.256;2022-10-16T07:46:23;101362.88;;;17.36;69.59
48517;BME280;34310;51.904;4.256;2022-10-16T07:48:51;101371.59;;;17.37;69.61
48517;BME280;34310;51.904;4.256;2022-10-16T07:51:20;101375.03;;;17.36;69.61
48517;BME280;34310;51.904;4.256;2022-10-16T07:53:48;101379.44;;;17.37;69.43
48517;BME280;34310;51.904;4.256;2022-10-16T07:56:17;101376.00;;;17.38;69.58
48517;BME280;34310;51.904;4.256;2022-10-16T07:58:44;101385.53;;;17.37;69.61
48517;BME280;34310;51.904;4.256;2022-10-16T08:01:14;101393.38;;;17.37;69.61
48517;BME280;34310;51.904;4.256;2022-10-16T08:03:59;101404.78;;;17.39;69.61
48517;BME280;34310;51.904;4.256;2022-10-16T08:06:27;101404.78;;;17.39;69.40
48517;BME280;34310;51.904;4.256;2022-10-16T08:08:55;101406.66;;;17.42;69.50
48517;BME280;34310;51.904;4.256;2022-10-16T08:11:22;101406.72;;;17.43;69.36
48517;BME280;34310;51.904;4.256;2022-10-16T08:13:50;101413.75;;;17.44;69.51
48517;BME280;34310;51.904;4.256;2022-10-16T08:16:17;101408.59;;;17.46;69.44
48517;BME280;34310;51.904;4.256;2022-10-16T08:18:44;101413.00;;;17.47;69.48
48517;BME280;34310;51.904;4.256;2022-10-16T08:21:15;101419.19;;;17.49;69.32
48517;BME280;34310;51.904;4.256;2022-10-16T08:23:47;101426.22;;;17.50;69.43
48517;BME280;34310;51.904;4.256;2022-10-16T08:26:23;101426.28;;;17.51;69.55
48517;BME280;34310;51.904;4.256;2022-10-16T08:28:50;101425.47;;;17.52;69.65
48517;BME280;34310;51.904;4.256;2022-10-16T08:31:19;101434.19;;;17.53;69.46
48517;BME280;34310;51.904;4.256;2022-10-16T08:33:47;101439.59;;;17.56;69.65
48517;BME280;34310;51.904;4.256;2022-10-16T08:36:15;101458.75;;;17.56;69.54
48517;BME280;34310;51.904;4.256;2022-10-16T08:38:43;101452.78;;;17.59;69.30
48517;BME280;34310;51.904;4.256;2022-10-16T08:41:51;101464.22;;;17.61;69.48
48517;BME280;34310;51.904;4.256;2022-10-16T08:50:29;101472.31;;;17.65;69.38
48517;BME280;34310;51.904;4.256;2022-10-16T08:52:57;101472.44;;;17.67;69.37
48517;BME280;34310;51.904;4.256;2022-10-16T08:55:37;101475.19;;;17.70;69.31
48517;BME280;34310;51.904;4.256;2022-10-16T08:58:16;101475.28;;;17.72;69.32
48517;BME280;34310;51.904;4.256;2022-10-16T09:00:47;101479.69;;;17.73;69.21
48517;BME280;34310;51.904;4.256;2022-10-16T09:17:14;101492.53;;;17.86;68.84
48517;BME280;34310;51.904;4.256;2022-10-16T09:22:29;101496.28;;;17.91;68.78
48517;BME280;34310;51.904;4.256;2022-10-16T09:25:04;101502.53;;;17.93;68.68
48517;BME280;34310;51.904;4.256;2022-10-16T09:27:37;101501.69;;;17.94;68.81
48517;BME280;34310;51.904;4.256;2022-10-16T09:30:17;101512.31;;;17.97;68.86
48517;BME280;34310;51.904;4.256;2022-10-16T09:32:47;101512.31;;;17.97;68.81
48517;BME280;34310;51.904;4.256;2022-10-16T09:35:21;101514.09;;;17.98;68.60
48517;BME280;34310;51.904;4.256;2022-10-16T09:37:51;101506.41;;;18.01;68.54
48517;BME280;34310;51.904;4.256;2022-10-16T09:43:00;101517.09;;;18.06;68.32
48517;BME280;34310;51.904;4.256;2022-10-16T09:45:28;101516.44;;;18.10;68.46
48517;BME280;34310;51.904;4.256;2022-10-16T09:47:56;101504.94;;;18.06;68.30
48517;BME280;34310;51.904;4.256;2022-10-16T09:50:28;101518.00;;;18.06;68.62
48517;BME280;34310;51.904;4.256;2022-10-16T09:53:14;101519.13;;;18.11;68.49
48517;BME280;34310;51.904;4.256;2022-10-16T09:55:52;101521.97;;;18.16;68.22
48517;BME280;34310;51.904;4.256;2022-10-16T09:58:23;101519.41;;;18.17;68.33
48517;BME280;34310;51.904;4.256;2022-10-16T10:00:53;101521.28;;;18.20;68.14
48517;BME280;34310;51.904;4.256;2022-10-16T10:03:47;101519.84;;;18.25;68.01
48517;BME280;34310;51.904;4.256;2022-10-16T10:09:24;101525.44;;;18.33;67.70
48517;BME280;34310;51.904;4.256;2022-10-16T10:11:59;101532.53;;;18.35;67.84
48517;BME280;34310;51.904;4.256;2022-10-16T10:14:39;101540.31;;;18.34;67.69
48517;BME280;34310;51.904;4.256;2022-10-16T10:22:24;101532.84;;;18.41;67.78
48517;BME280;34310;51.904;4.256;2022-10-16T10:39:00;101552.34;;;18.64;66.84
48517;BME280;34310;51.904;4.256;2022-10-16T10:41:34;101548.97;;;18.67;66.86
48517;BME280;34310;51.904;4.256;2022-10-16T10:49:48;101556.34;;;18.75;66.78
48517;BME280;34310;51.904;4.256;2022-10-16T10:59:04;101561.91;;;18.81;66.52
48517;BME280;34310;51.904;4.256;2022-10-16T11:01:49;101570.81;;;18.85;66.32
48517;BME280;34310;51.904;4.256;2022-10-16T11:07:17;101583.22;;;18.89;66.52
48517;BME280;34310;51.904;4.256;2022-10-16T11:09:57;101585.97;;;18.92;66.26
48517;BME280;34310;51.904;4.256;2022-10-16T11:12:41;101587.78;;;18.93;66.34
48517;BME280;34310;51.904;4.256;2022-10-16T11:15:14;101588.75;;;18.95;66.08
48517;BME280;34310;51.904;4.256;2022-10-16T11:20:18;101595.25;;;19.03;65.99
48517;BME280;34310;51.904;4.256;2022-10-16T11:23:05;101594.19;;;19.00;66.01
48517;BME280;34310;51.904;4.256;2022-10-16T11:25:34;101599.34;;;18.98;65.96
48517;BME280;34310;51.904;4.256;2022-10-16T11:33:32;101605.13;;;19.09;65.71
48517;BME280;34310;51.904;4.256;2022-10-16T11:36:33;101603.50;;;19.11;65.99
48517;BME280;34310;51.904;4.256;2022-10-16T11:41:51;101598.47;;;19.15;65.67
48517;BME280;34310;51.904;4.256;2022-10-16T11:50:57;101615.00;;;19.14;65.87
48517;BME280;34310;51.904;4.256;2022-10-16T11:54:04;101614.84;;;19.11;65.96
48517;BME280;34310;51.904;4.256;2022-10-16T11:56:38;101622.78;;;19.13;65.87
48517;BME280;34310;51.904;4.256;2022-10-16T11:59:40;101622.03;;;19.15;65.74
48517;BME280;34310;51.904;4.256;2022-10-16T12:02:33;101621.50;;;19.23;65.80
48517;BME280;34310;51.904;4.256;2022-10-16T12:07:47;101629.50;;;19.26;65.53
48517;BME280;34310;51.904;4.256;2022-10-16T12:10:26;101627.47;;;19.20;65.62
48517;BME280;34310;51.904;4.256;2022-10-16T12:12:54;101637.88;;;19.18;65.75
48517;BME280;34310;51.904;4.256;2022-10-16T12:15:29;101633.69;;;19.22;65.67
48517;BME280;34310;51.904;4.256;2022-10-16T12:18:24;101634.88;;;19.29;65.46
48517;BME280;34310;51.904;4.256;2022-10-16T12:20:56;101643.69;;;19.31;65.45
48517;BME280;34310;51.904;4.256;2022-10-16T12:23:55;101641.84;;;19.28;65.60
48517;BME280;34310;51.904;4.256;2022-10-16T12:26:34;101631.66;;;19.34;65.40
48517;BME280;34310;51.904;4.256;2022-10-16T12:29:29;101630.00;;;19.36;65.57
48517;BME280;34310;51.904;4.256;2022-10-16T12:31:59;101634.44;;;19.37;65.33
48517;BME280;34310;51.904;4.256;2022-10-16T12:34:39;101629.19;;;19.37;65.61
48517;BME280;34310;51.904;4.256;2022-10-16T12:37:35;101637.28;;;19.42;65.26
48517;BME280;34310;51.904;4.256;2022-10-16T12:40:15;101637.34;;;19.43;65.26
48517;BME280;34310;51.904;4.256;2022-10-16T12:42:43;101633.97;;;19.46;65.28
48517;BME280;34310;51.904;4.256;2022-10-16T12:47:53;101636.66;;;19.47;65.61
48517;BME280;34310;51.904;4.256;2022-10-16T12:50:38;101635.06;;;19.51;65.58
48517;BME280;34310;51.904;4.256;2022-10-16T12:53:26;101637.75;;;19.53;65.73
48517;BME280;34310;51.904;4.256;2022-10-16T13:04:34;101650.88;;;19.53;65.86
48517;BME280;34310;51.904;4.256;2022-10-16T13:10:02;101654.41;;;19.53;66.14
48517;BME280;34310;51.904;4.256;2022-10-16T13:12:45;101657.75;;;19.50;66.10
48517;BME280;34310;51.904;4.256;2022-10-16T13:15:38;101658.72;;;19.53;66.18
48517;BME280;34310;51.904;4.256;2022-10-16T13:24:03;101667.25;;;19.48;66.19
48517;BME280;34310;51.904;4.256;2022-10-16T13:27:00;101664.56;;;19.47;66.14
48517;BME280;34310;51.904;4.256;2022-10-16T13:29:33;101661.94;;;19.47;66.34
48517;BME280;34310;51.904;4.256;2022-10-16T13:32:06;101660.09;;;19.44;66.15
48517;BME280;34310;51.904;4.256;2022-10-16T13:34:47;101674.91;;;19.44;66.23
48517;BME280;34310;51.904;4.256;2022-10-16T13:37:20;101664.56;;;19.47;66.41
48517;BME280;34310;51.904;4.256;2022-10-16T13:39:48;101664.97;;;19.55;66.32
48517;BME280;34310;51.904;4.256;2022-10-16T13:44:55;101662.84;;;19.65;65.95
48517;BME280;34310;51.904;4.256;2022-10-16T13:47:28;101668.00;;;19.64;65.85
48517;BME280;34310;51.904;4.256;2022-10-16T13:50:05;101658.34;;;19.63;65.86
48517;BME280;34310;51.904;4.256;2022-10-16T13:52:33;101653.88;;;19.60;64.81
48517;BME280;34310;51.904;4.256;2022-10-16T13:55:00;101648.50;;;19.57;63.82
48517;BME280;34310;51.904;4.256;2022-10-16T13:57:29;101659.88;;;19.58;63.33
48517;BME280;34310;51.904;4.256;2022-10-16T13:59:56;101650.97;;;19.54;62.54
48517;BME280;34310;51.904;4.256;2022-10-16T14:02:31;101655.22;;;19.52;62.51
48517;BME280;34310;51.904;4.256;2022-10-16T14:05:02;101654.25;;;19.50;62.38
48517;BME280;34310;51.904;4.256;2022-10-16T14:07:33;101656.03;;;19.51;62.13
48517;BME280;34310;51.904;4.256;2022-10-16T14:10:07;101655.06;;;19.49;61.66
48517;BME280;34310;51.904;4.256;2022-10-16T14:12:45;101664.66;;;19.48;61.16
48517;BME280;34310;51.904;4.256;2022-10-16T14:15:17;101658.38;;;19.45;61.02
48517;BME280;34310;51.904;4.256;2022-10-16T14:17:49;101654.78;;;19.43;60.71
48517;BME280;34310;51.904;4.256;2022-10-16T14:20:17;101652.91;;;19.40;60.16
48517;BME280;34310;51.904;4.256;2022-10-16T14:22:45;101655.38;;;19.37;60.20
48517;BME280;34310;51.904;4.256;2022-10-16T14:28:04;101651.78;;;19.35;60.12
48517;BME280;34310;51.904;4.256;2022-10-16T14:30:35;101648.25;;;19.35;59.89
48517;BME280;34310;51.904;4.256;2022-10-16T14:33:19;101637.72;;;19.33;59.94
48517;BME280;34310;51.904;4.256;2022-10-16T14:35:56;101641.28;;;19.35;60.20
48517;BME280;34310;51.904;4.256;2022-10-16T14:38:26;101642.13;;;19.34;60.34
48517;BME280;34310;51.904;4.256;2022-10-16T14:40:53;101648.09;;;19.32;59.98
48517;BME280;34310;51.904;4.256;2022-10-16T14:43:36;101649.81;;;19.31;60.37
48517;BME280;34310;51.904;4.256;2022-10-16T14:46:08;101645.34;;;19.29;60.66
48517;BME280;34310;51.904;4.256;2022-10-16T14:48:41;101650.50;;;19.27;60.36
48517;BME280;34310;51.904;4.256;2022-10-16T14:51:14;101637.28;;;19.24;60.43
48517;BME280;34310;51.904;4.256;2022-10-16T14:53:41;101646.78;;;19.22;60.44
48517;BME280;34310;51.904;4.256;2022-10-16T14:56:19;101643.25;;;19.22;60.32
48517;BME280;34310;51.904;4.256;2022-10-16T14:58:47;101648.28;;;19.17;60.12
48517;BME280;34310;51.904;4.256;2022-10-16T15:01:14;101654.41;;;19.17;60.03
48517;BME280;34310;51.904;4.256;2022-10-16T15:03:42;101653.50;;;19.17;59.89
48517;BME280;34310;51.904;4.256;2022-10-16T15:06:12;101643.78;;;19.14;60.10
48517;BME280;34310;51.904;4.256;2022-10-16T15:08:40;101643.72;;;19.13;60.05
48517;BME280;34310;51.904;4.256;2022-10-16T15:11:16;101642.69;;;19.09;60.02
48517;BME280;34310;51.904;4.256;2022-10-16T15:13:45;101637.50;;;19.11;59.69
48517;BME280;34310;51.904;4.256;2022-10-16T15:16:15;101642.69;;;19.09;59.62
48517;BME280;34310;51.904;4.256;2022-10-16T15:18:42;101646.13;;;19.08;59.86
48517;BME280;34310;51.904;4.256;2022-10-16T15:21:29;101639.06;;;19.07;59.98